Time;durP1;ratioP1;P1;durP2;ratioP2;P2;SDS_P1;SDS_P2;PMS_P1;PMS_P2;Temp;Humidity;BMP_temperature;BMP_pressure;BME280_temperature;BME280_humidity;BME280_pressure;Samples;Min_cycle;Max_cycle;Signal;HPM_P1;HPM_P2
2022/06/19 00:01:36;;;;;;;0.40;0.00;;;;;;;22.18;54.26;100155.50;104059;1279;95249;-71
2022/06/19 00:04:06;;;;;;;0.40;0.00;;;;;;;22.13;54.50;100157.15;103956;1279;139083;-71
2022/06/19 00:06:36;;;;;;;0.40;0.00;;;;;;;22.13;54.70;100159.52;104177;1279;109899;-71
2022/06/19 00:09:06;;;;;;;0.40;0.00;;;;;;;22.12;54.88;100159.80;104059;1280;99393;-71
2022/06/19 00:11:36;;;;;;;0.40;0.00;;;;;;;22.06;55.17;100156.98;103917;1279;137888;-71
2022/06/19 00:14:04;;;;;;;0.40;0.10;;;;;;;22.00;55.76;100161.27;103955;1280;95310;-71
2022/06/19 00:16:33;;;;;;;0.40;0.00;;;;;;;21.96;55.77;100158.88;103911;1279;138984;-71
2022/06/19 00:19:03;;;;;;;0.40;0.00;;;;;;;21.98;55.66;100165.00;104221;1280;109808;-71
2022/06/19 00:21:32;;;;;;;0.40;0.00;;;;;;;21.96;55.94;100168.43;103742;1281;138989;-71
2022/06/19 00:24:00;;;;;;;0.40;0.00;;;;;;;21.92;56.04;100169.66;103951;1281;108652;-71
2022/06/19 00:26:28;;;;;;;0.40;0.10;;;;;;;21.86;56.05;100167.73;104027;1279;95212;-71
2022/06/19 00:28:57;;;;;;;0.40;0.10;;;;;;;21.80;56.39;100167.67;103928;1279;138490;-71
2022/06/19 00:31:26;;;;;;;0.40;0.10;;;;;;;21.77;56.19;100166.09;104076;1280;110043;-71
2022/06/19 00:33:55;;;;;;;0.40;0.00;;;;;;;21.77;56.38;100169.89;103961;1279;139586;-71
2022/06/19 00:36:26;;;;;;;0.40;0.10;;;;;;;21.74;56.45;100169.40;104063;1279;107614;-71
2022/06/19 00:38:55;;;;;;;0.40;0.00;;;;;;;21.75;56.61;100171.67;104053;1279;95688;-69
2022/06/19 00:41:25;;;;;;;0.40;0.00;;;;;;;21.73;56.71;100171.50;104009;1280;138156;-71
2022/06/19 00:43:59;;;;;;;0.40;0.10;;;;;;;21.72;57.12;100173.35;104091;1279;109744;-70
2022/06/19 00:46:52;;;;;;;0.40;0.00;;;;;;;21.71;57.03;100174.30;104011;1279;139549;-71
2022/06/19 00:49:23;;;;;;;0.40;0.10;;;;;;;21.67;57.30;100176.43;104037;1279;108809;-71
2022/06/19 00:52:00;;;;;;;0.40;0.00;;;;;;;21.62;57.60;100176.85;103937;1278;138803;-71
2022/06/19 00:54:32;;;;;;;0.40;0.10;;;;;;;21.59;57.48;100176.66;104094;1278;96528;-71
2022/06/19 00:57:00;;;;;;;0.40;0.10;;;;;;;21.59;57.60;100181.77;104091;1279;109712;-71
2022/06/19 00:59:29;;;;;;;0.40;0.00;;;;;;;21.61;57.40;100191.71;103948;1279;139059;-71
2022/06/19 01:01:57;;;;;;;0.40;0.10;;;;;;;21.64;57.52;100193.44;104186;1279;108796;-71
2022/06/19 01:04:32;;;;;;;0.40;0.10;;;;;;;21.56;57.65;100196.05;103963;1279;138876;-71
2022/06/19 01:07:00;;;;;;;0.40;0.00;;;;;;;21.49;57.48;100192.41;104124;1280;95142;-71
2022/06/19 01:09:28;;;;;;;0.40;0.00;;;;;;;21.45;57.59;100196.11;103951;1279;138271;-71
2022/06/19 01:11:56;;;;;;;0.40;0.10;;;;;;;21.47;57.99;100188.80;104110;1279;99327;-71
2022/06/19 01:14:26;;;;;;;0.40;0.00;;;;;;;21.45;57.88;100198.62;104060;1279;108814;-71
2022/06/19 01:16:54;;;;;;;0.40;0.10;;;;;;;21.46;58.17;100198.92;103986;1279;139980;-71
2022/06/19 01:19:28;;;;;;;0.40;0.10;;;;;;;21.48;58.47;100198.02;104083;1279;95830;-71
2022/06/19 01:22:21;;;;;;;0.40;0.10;;;;;;;21.48;58.39;100199.73;104194;1278;138850;-71
2022/06/19 01:25:04;;;;;;;0.40;0.10;;;;;;;21.36;58.51;100205.87;104119;1279;99507;-72
2022/06/19 01:30:25;;;;;;;0.40;0.10;;;;;;;21.14;58.60;100204.06;104017;1277;95233;-71
2022/06/19 01:32:57;;;;;;;0.40;0.00;;;;;;;21.09;58.87;100204.38;104090;1279;95178;-70
2022/06/19 01:35:28;;;;;;;0.40;0.00;;;;;;;21.12;59.02;100196.80;104003;1279;138116;-71
2022/06/19 01:38:12;;;;;;;0.40;0.10;;;;;;;21.11;59.17;100198.81;104073;1279;99334;-71
2022/06/19 01:40:43;;;;;;;0.40;0.10;;;;;;;21.17;58.99;100205.42;103919;1279;138900;-71
2022/06/19 01:43:12;;;;;;;0.40;0.00;;;;;;;21.31;58.27;100210.73;104108;1280;96137;-71
2022/06/19 01:45:44;;;;;;;0.40;0.10;;;;;;;21.38;58.21;100208.77;103982;1279;138970;-71
2022/06/19 01:48:12;;;;;;;0.40;0.10;;;;;;;21.29;58.77;100206.52;104122;1279;109589;-70
2022/06/19 01:50:43;;;;;;;0.40;0.10;;;;;;;21.18;58.78;100204.45;104076;1278;99681;-71
2022/06/19 01:53:17;;;;;;;0.40;0.00;;;;;;;21.15;58.84;100204.32;104060;1279;139392;-71
2022/06/19 01:55:46;;;;;;;0.40;0.10;;;;;;;21.23;58.77;100208.95;104088;1279;96130;-71
2022/06/19 01:58:15;;;;;;;0.40;0.10;;;;;;;21.23;58.84;100214.39;104081;1279;138152;-71
2022/06/19 02:00:45;;;;;;;0.40;0.10;;;;;;;21.14;59.10;100213.07;104063;1279;109796;-71
2022/06/19 02:03:28;;;;;;;0.40;0.00;;;;;;;21.08;59.27;100211.11;103947;1279;139305;-70
2022/06/19 02:05:58;;;;;;;0.40;0.10;;;;;;;21.09;59.33;100205.70;104080;1278;108807;-71
2022/06/19 02:08:29;;;;;;;0.40;0.10;;;;;;;21.08;59.26;100208.27;104222;1279;95284;-71
2022/06/19 02:10:58;;;;;;;0.40;0.10;;;;;;;20.97;59.60;100206.88;103972;1279;138426;-71
2022/06/19 02:13:26;;;;;;;0.40;0.00;;;;;;;20.84;59.94;100207.66;104168;1278;109785;-71
2022/06/19 02:15:54;;;;;;;0.40;0.10;;;;;;;20.76;60.18;100209.30;104048;1279;139860;-71
2022/06/19 02:18:37;;;;;;;0.40;0.10;;;;;;;20.73;60.57;100209.17;104240;1279;108992;-71
2022/06/19 02:21:08;;;;;;;0.40;0.00;;;;;;;20.75;60.77;100207.72;104173;1279;95339;-71
2022/06/19 02:23:38;;;;;;;0.40;0.10;;;;;;;20.67;60.65;100207.23;104653;1279;138167;-72
2022/06/19 02:26:09;;;;;;;0.40;0.00;;;;;;;20.60;60.90;100199.96;104166;1280;110178;-71
2022/06/19 02:28:42;;;;;;;0.40;0.10;;;;;;;20.61;60.94;100197.70;104039;1279;139090;-70
2022/06/19 02:31:10;;;;;;;0.40;0.10;;;;;;;20.64;60.96;100199.85;104103;1281;109271;-71
2022/06/19 02:33:45;;;;;;;0.40;0.10;;;;;;;20.62;60.83;100194.02;104044;1279;139310;-71
2022/06/19 02:36:48;;;;;;;0.40;0.00;;;;;;;20.57;60.79;100194.23;104158;1279;95254;-71
2022/06/19 02:39:32;;;;;;;0.40;0.10;;;;;;;20.49;61.16;100190.10;104005;1279;138621;-71
2022/06/19 02:42:19;;;;;;;0.40;0.10;;;;;;;20.51;61.34;100192.95;104206;1280;99750;-70
2022/06/19 02:44:54;;;;;;;0.40;0.10;;;;;;;20.50;61.32;100188.17;104163;1278;108809;-70
2022/06/19 02:47:24;;;;;;;0.40;0.10;;;;;;;20.53;61.33;100179.34;104304;1279;139028;-71
2022/06/19 02:49:52;;;;;;;0.40;0.00;;;;;;;20.58;61.16;100179.21;104340;1280;96777;-70
2022/06/19 02:52:21;;;;;;;0.40;0.10;;;;;;;20.59;61.47;100174.61;104034;1279;139125;-70
2022/06/19 02:54:49;;;;;;;0.40;0.10;;;;;;;20.58;61.09;100171.39;104139;1279;99431;-71
2022/06/19 02:57:18;;;;;;;0.40;0.10;;;;;;;20.61;61.46;100166.49;104062;1277;139895;-70
2022/06/19 02:59:46;;;;;;;0.40;0.10;;;;;;;20.71;60.95;100163.66;104184;1277;95535;-70
2022/06/19 03:02:15;;;;;;;0.40;0.10;;;;;;;20.78;60.43;100163.11;104235;1279;95655;-71
2022/06/19 03:04:56;;;;;;;0.40;0.00;;;;;;;20.87;60.31;100166.64;104168;1279;138480;-70
2022/06/19 03:07:29;;;;;;;0.40;0.00;;;;;;;20.95;60.24;100166.45;104215;1277;100049;-70
2022/06/19 03:09:57;;;;;;;0.40;0.10;;;;;;;20.97;59.96;100162.10;104064;1279;139260;-70
2022/06/19 03:12:25;;;;;;;0.40;0.10;;;;;;;20.99;59.92;100159.44;104112;1279;95697;-70
2022/06/19 03:14:53;;;;;;;0.40;0.10;;;;;;;21.00;60.09;100160.83;104218;1278;95307;-70
2022/06/19 03:17:22;;;;;;;0.40;0.10;;;;;;;21.05;59.73;100156.11;104153;1279;139796;-69
2022/06/19 03:19:55;;;;;;;0.40;0.00;;;;;;;21.09;59.82;100155.50;104207;1279;99635;-71
2022/06/19 03:22:23;;;;;;;0.40;0.10;;;;;;;21.14;59.58;100154.42;104064;1279;138927;-71
2022/06/19 03:24:51;;;;;;;0.40;0.10;;;;;;;21.15;59.51;100149.06;104142;1279;96639;-70
2022/06/19 03:27:19;;;;;;;0.40;0.10;;;;;;;21.20;59.34;100151.20;104067;1278;138903;-70
2022/06/19 03:29:48;;;;;;;0.40;0.00;;;;;;;21.27;59.65;100149.45;104165;1280;109705;-70
2022/06/19 03:32:16;;;;;;;0.40;0.10;;;;;;;21.29;59.43;100149.51;104187;1279;99375;-70
2022/06/19 03:34:44;;;;;;;0.40;0.10;;;;;;;21.31;59.58;100151.83;104042;1279;138084;-70
2022/06/19 03:37:12;;;;;;;0.40;0.10;;;;;;;21.35;59.30;100152.95;104088;1279;95937;-70
2022/06/19 03:39:40;;;;;;;0.40;0.10;;;;;;;21.41;59.36;100151.63;104002;1279;139049;-70
2022/06/19 03:42:10;;;;;;;0.40;0.00;;;;;;;21.47;59.16;100153.34;104261;1278;109747;-70
2022/06/19 03:44:38;;;;;;;0.40;0.10;;;;;;;21.51;59.10;100152.66;104373;1277;99973;-70
2022/06/19 03:47:06;;;;;;;0.40;0.10;;;;;;;21.56;58.92;100151.95;104211;1277;138110;-69
2022/06/19 03:49:34;;;;;;;0.40;0.00;;;;;;;21.61;58.81;100154.68;104285;1279;95350;-70
2022/06/19 03:52:03;;;;;;;0.40;0.00;;;;;;;21.68;58.47;100149.43;104157;1277;139313;-71
2022/06/19 03:54:31;;;;;;;0.40;0.10;;;;;;;21.77;58.51;100149.48;104228;1277;111030;-70
2022/06/19 03:56:59;;;;;;;0.40;0.00;;;;;;;21.83;58.35;100149.70;104136;1279;99578;-70
2022/06/19 03:59:27;;;;;;;0.40;0.00;;;;;;;21.87;58.21;100149.59;104057;1279;138647;-70
2022/06/19 04:01:55;;;;;;;0.40;0.10;;;;;;;21.90;58.13;100149.70;104179;1277;95253;-70
2022/06/19 04:04:23;;;;;;;0.40;0.10;;;;;;;21.97;58.12;100148.52;104060;1279;139337;-71
2022/06/19 04:06:51;;;;;;;0.40;0.10;;;;;;;22.03;57.57;100149.46;104171;1279;110025;-70
2022/06/19 04:09:19;;;;;;;0.40;0.00;;;;;;;22.09;57.51;100152.81;104073;1279;139124;-71
2022/06/19 04:11:47;;;;;;;0.40;0.00;;;;;;;22.13;57.29;100151.90;104156;1280;109074;-70
2022/06/19 04:14:18;;;;;;;0.40;0.10;;;;;;;22.12;57.90;100151.34;104124;1279;95659;-71
2022/06/19 04:16:45;;;;;;;0.40;0.10;;;;;;;22.15;57.43;100145.25;104080;1279;139025;-71
2022/06/19 04:19:13;;;;;;;0.40;0.10;;;;;;;22.18;57.76;100141.26;104122;1279;109671;-70
2022/06/19 04:21:45;;;;;;;0.40;0.10;;;;;;;22.20;57.57;100144.30;104066;1279;138544;-70
2022/06/19 04:24:15;;;;;;;0.40;0.10;;;;;;;22.24;57.49;100137.66;104105;1279;108883;-70
2022/06/19 04:26:43;;;;;;;0.40;0.10;;;;;;;22.26;57.15;100136.98;104096;1277;95179;-70
2022/06/19 04:29:13;;;;;;;0.40;0.10;;;;;;;22.32;57.20;100137.77;104037;1279;138570;-70
2022/06/19 04:31:41;;;;;;;0.40;0.10;;;;;;;22.41;57.42;100137.49;104074;1279;109870;-71
2022/06/19 04:34:10;;;;;;;0.40;0.00;;;;;;;22.47;56.95;100131.92;104152;1279;139260;-70
2022/06/19 04:36:39;;;;;;;0.40;0.00;;;;;;;22.49;56.88;100134.50;104131;1278;109352;-70
2022/06/19 04:39:07;;;;;;;0.40;0.00;;;;;;;22.52;56.70;100135.70;104078;1277;95212;-70
2022/06/19 04:41:39;;;;;;;0.40;0.10;;;;;;;22.54;56.52;100129.75;103850;1281;138971;-69
2022/06/19 04:44:10;;;;;;;0.40;0.10;;;;;;;22.50;56.56;100131.86;104076;1279;109892;-71
2022/06/19 04:46:39;;;;;;;0.40;0.00;;;;;;;22.49;56.63;100130.81;103900;1281;139117;-70
2022/06/19 04:49:08;;;;;;;0.40;0.00;;;;;;;22.51;56.51;100125.61;104069;1279;108592;-70
2022/06/19 04:51:39;;;;;;;0.40;0.00;;;;;;;22.52;56.29;100121.02;104097;1279;138517;-70
2022/06/19 04:54:07;;;;;;;0.40;0.10;;;;;;;22.58;56.27;100117.98;104109;1279;95222;-70
2022/06/19 04:56:36;;;;;;;0.40;0.10;;;;;;;22.60;56.29;100116.55;104063;1279;109760;-71
2022/06/19 04:59:05;;;;;;;0.40;0.10;;;;;;;22.63;56.56;100114.17;103926;1279;139089;-71
2022/06/19 05:01:36;;;;;;;0.40;0.10;;;;;;;22.75;56.13;100110.27;104057;1279;107855;-71
2022/06/19 05:04:11;;;;;;;0.40;0.10;;;;;;;22.84;55.85;100111.36;104157;1279;137472;-71
2022/06/19 05:06:40;;;;;;;0.40;0.00;;;;;;;22.82;55.54;100110.59;104166;1278;95736;-71
2022/06/19 05:09:10;;;;;;;0.40;0.00;;;;;;;22.84;55.85;100103.17;104138;1279;109855;-71
2022/06/19 05:11:39;;;;;;;0.40;0.00;;;;;;;22.94;55.69;100103.27;104137;1279;98091;-71
2022/06/19 05:14:07;;;;;;;0.40;0.10;;;;;;;23.02;55.57;100099.20;104066;1279;108853;-71
2022/06/19 05:16:35;;;;;;;0.40;0.00;;;;;;;23.01;55.33;100102.83;103986;1279;138250;-72
2022/06/19 05:19:04;;;;;;;0.40;0.00;;;;;;;23.00;55.37;100104.21;104020;1279;189761;-71
2022/06/19 05:21:32;;;;;;;0.40;0.00;;;;;;;23.04;55.59;100107.48;104041;1278;141611;-71
2022/06/19 05:24:00;;;;;;;0.40;0.00;;;;;;;23.10;55.34;100108.52;104069;1280;99816;-71
2022/06/19 05:26:34;;;;;;;0.40;0.10;;;;;;;23.18;55.23;100106.38;104059;1278;108575;-69
2022/06/19 05:29:04;;;;;;;0.40;0.00;;;;;;;23.34;54.83;100107.19;104023;1278;139125;-72
2022/06/19 05:31:33;;;;;;;0.40;0.00;;;;;;;23.48;54.75;100104.60;104159;1279;95839;-70
2022/06/19 05:34:02;;;;;;;0.40;0.10;;;;;;;23.57;54.62;100104.53;104030;1280;138773;-71
2022/06/19 05:36:37;;;;;;;0.40;0.10;;;;;;;23.73;54.69;100100.45;104152;1279;99384;-71
2022/06/19 05:39:11;;;;;;;0.40;0.10;;;;;;;23.87;54.34;100095.41;104071;1279;107610;-70
2022/06/19 05:41:40;;;;;;;0.40;0.00;;;;;;;23.94;53.45;100095.65;104026;1279;138063;-71
2022/06/19 05:44:11;;;;;;;0.40;0.00;;;;;;;23.97;53.22;100091.00;104127;1279;95513;-71
2022/06/19 05:46:39;;;;;;;0.40;0.00;;;;;;;24.04;53.41;100091.70;104078;1279;138099;-72
2022/06/19 05:49:08;;;;;;;0.40;0.00;;;;;;;24.11;52.91;100091.60;104128;1280;99431;-70
2022/06/19 05:51:36;;;;;;;0.40;0.00;;;;;;;24.17;52.89;100091.95;104021;1279;138274;-70
2022/06/19 05:54:04;;;;;;;0.40;0.00;;;;;;;24.21;52.21;100085.96;104145;1279;96464;-71
2022/06/19 05:56:33;;;;;;;0.40;0.00;;;;;;;24.27;51.90;100082.07;104147;1279;95167;-71
2022/06/19 05:59:01;;;;;;;0.40;0.00;;;;;;;24.38;52.40;100079.35;104006;1279;138637;-71
2022/06/19 06:01:29;;;;;;;0.40;0.00;;;;;;;24.52;51.93;100076.69;104100;1280;99571;-71
2022/06/19 06:03:59;;;;;;;0.40;0.00;;;;;;;24.61;52.12;100076.45;104016;1279;138461;-71
2022/06/19 06:06:31;;;;;;;0.40;0.00;;;;;;;24.66;51.49;100074.55;104182;1279;95166;-71
2022/06/19 06:08:59;;;;;;;0.40;0.10;;;;;;;24.69;51.29;100070.45;104011;1280;95789;-70
2022/06/19 06:11:27;;;;;;;0.40;0.00;;;;;;;24.76;51.39;100066.77;103988;1279;138612;-71
2022/06/19 06:13:55;;;;;;;0.40;0.00;;;;;;;24.83;50.90;100072.68;104161;1279;98430;-71
2022/06/19 06:16:23;;;;;;;0.40;0.00;;;;;;;24.84;50.11;100066.34;103994;1279;138027;-70
2022/06/19 06:18:52;;;;;;;0.40;0.00;;;;;;;24.90;50.25;100061.68;104103;1279;96123;-70
2022/06/19 06:21:22;;;;;;;0.40;0.00;;;;;;;25.00;50.79;100061.44;104042;1279;138317;-69
2022/06/19 06:23:52;;;;;;;0.40;0.00;;;;;;;25.05;50.61;100063.17;104161;1279;107857;-70
2022/06/19 06:26:27;;;;;;;0.40;0.00;;;;;;;25.09;50.13;100058.48;104185;1279;99377;-71
2022/06/19 06:28:58;;;;;;;0.40;0.00;;;;;;;25.13;50.30;100054.96;104101;1279;138096;-71
2022/06/19 06:31:27;;;;;;;0.40;0.00;;;;;;;25.22;49.80;100057.96;104107;1279;96829;-71
2022/06/19 06:33:58;;;;;;;0.40;0.00;;;;;;;25.28;49.58;100054.36;104069;1279;138466;-70
2022/06/19 06:36:28;;;;;;;0.40;0.00;;;;;;;25.35;49.90;100055.69;104107;1279;109709;-70
2022/06/19 06:38:57;;;;;;;0.40;0.00;;;;;;;25.46;49.93;100054.68;104164;1279;99928;-70
2022/06/19 06:41:25;;;;;;;0.40;0.00;;;;;;;25.56;49.41;100052.48;104041;1279;138756;-71
2022/06/19 06:43:54;;;;;;;0.40;0.00;;;;;;;25.61;48.83;100052.20;104170;1279;95354;-71
2022/06/19 06:46:25;;;;;;;0.40;0.00;;;;;;;25.71;49.01;100051.59;104099;1279;138139;-71
2022/06/19 06:48:57;;;;;;;0.40;0.00;;;;;;;25.81;48.36;100050.31;104198;1279;109193;-71
2022/06/19 06:51:27;;;;;;;0.40;0.00;;;;;;;25.87;48.15;100051.02;103936;1281;138960;-71
2022/06/19 06:53:57;;;;;;;0.40;0.00;;;;;;;25.97;47.60;100056.58;104125;1279;108807;-70
2022/06/19 06:56:30;;;;;;;0.40;0.00;;;;;;;25.99;47.51;100054.39;104058;1279;95733;-71
2022/06/19 06:58:58;;;;;;;0.40;0.00;;;;;;;26.05;47.96;100051.98;104040;1279;138454;-72
2022/06/19 07:01:32;;;;;;;0.40;0.00;;;;;;;26.15;48.33;100050.96;104147;1279;108991;-71
2022/06/19 07:04:01;;;;;;;0.40;0.00;;;;;;;26.23;47.57;100051.92;104081;1279;138412;-70
2022/06/19 07:06:31;;;;;;;0.40;0.00;;;;;;;26.32;47.30;100052.07;104048;1281;108851;-70
2022/06/19 07:08:59;;;;;;;0.40;0.00;;;;;;;26.43;47.65;100054.72;104076;1279;95674;-70
2022/06/19 07:11:33;;;;;;;0.40;0.00;;;;;;;26.53;46.95;100056.08;104025;1279;138051;-70
2022/06/19 07:14:01;;;;;;;0.40;0.00;;;;;;;26.63;47.49;100055.61;104101;1280;109846;-71
2022/06/19 07:16:29;;;;;;;0.40;0.00;;;;;;;26.71;47.44;100049.39;104042;1279;138485;-70
2022/06/19 07:18:58;;;;;;;0.40;0.00;;;;;;;26.81;47.63;100046.40;104123;1279;109184;-71
2022/06/19 07:21:25;;;;;;;0.40;0.00;;;;;;;26.88;46.40;100044.98;104021;1280;138487;-71
2022/06/19 07:23:53;;;;;;;0.40;0.00;;;;;;;26.95;46.32;100039.66;104128;1279;95140;-71
2022/06/19 07:26:24;;;;;;;0.40;0.00;;;;;;;27.01;45.94;100041.30;104098;1277;109730;-71
2022/06/19 07:28:52;;;;;;;0.40;0.00;;;;;;;27.02;46.40;100045.33;104083;1277;138274;-70
2022/06/19 07:31:27;;;;;;;0.40;0.00;;;;;;;27.14;46.99;100047.06;104149;1277;108794;-71
2022/06/19 07:33:55;;;;;;;0.40;0.00;;;;;;;27.23;46.46;100042.48;104033;1277;138349;-71
2022/06/19 07:36:23;;;;;;;0.40;0.00;;;;;;;27.35;46.51;100040.01;104124;1277;95604;-71
2022/06/19 07:38:51;;;;;;;0.40;0.00;;;;;;;27.44;45.57;100040.73;104188;1277;109801;-71
2022/06/19 07:41:20;;;;;;;0.40;0.00;;;;;;;27.50;45.76;100039.04;104086;1277;138818;-71
2022/06/19 07:43:50;;;;;;;0.40;0.00;;;;;;;27.56;44.99;100034.67;104122;1277;108858;-71
2022/06/19 07:46:19;;;;;;;0.40;0.00;;;;;;;27.63;44.64;100033.17;103973;1277;138940;-71
2022/06/19 07:51:34;;;;;;;0.40;0.00;;;;;;;27.84;44.26;100028.73;103972;1279;139731;-70
2022/06/19 07:54:03;;;;;;;0.40;0.00;;;;;;;27.93;43.81;100031.10;104130;1277;99400;-70
2022/06/19 07:56:31;;;;;;;0.40;0.00;;;;;;;28.00;43.20;100025.10;104051;1277;109140;-70
2022/06/19 07:58:59;;;;;;;0.40;0.00;;;;;;;28.10;43.72;100021.70;104008;1277;140122;-70
2022/06/19 08:01:28;;;;;;;0.40;0.00;;;;;;;28.19;43.60;100019.26;104218;1277;95210;-70
2022/06/19 08:04:16;;;;;;;0.40;0.00;;;;;;;28.23;43.77;100011.73;104012;1277;138528;-70
2022/06/19 08:06:44;;;;;;;0.40;0.00;;;;;;;28.30;43.27;100012.79;104119;1277;99782;-71
2022/06/19 08:09:12;;;;;;;0.40;0.00;;;;;;;28.39;43.30;100015.46;104081;1277;109031;-70
2022/06/19 08:11:40;;;;;;;0.40;0.00;;;;;;;28.48;42.59;100018.17;104069;1279;95282;-70
2022/06/19 08:14:08;;;;;;;0.40;0.00;;;;;;;28.60;42.56;100015.96;104162;1279;95920;-69
2022/06/19 08:16:36;;;;;;;0.40;0.00;;;;;;;28.72;42.43;100012.92;104009;1279;138703;-70
2022/06/19 08:19:04;;;;;;;0.40;0.00;;;;;;;28.86;41.47;100013.34;103984;1281;98535;-70
2022/06/19 08:21:32;;;;;;;0.40;0.00;;;;;;;28.98;41.03;100012.04;104067;1279;138337;-70
2022/06/19 08:24:00;;;;;;;0.40;0.00;;;;;;;29.10;41.61;100012.92;104115;1279;95239;-70
2022/06/19 08:26:28;;;;;;;0.40;0.00;;;;;;;29.17;41.51;100012.48;104111;1280;95421;-70
2022/06/19 08:29:02;;;;;;;0.40;0.00;;;;;;;29.25;41.00;100009.13;104004;1279;139147;-70
2022/06/19 08:31:31;;;;;;;0.40;0.00;;;;;;;29.38;41.10;100009.14;104184;1281;100042;-69
2022/06/19 08:33:59;;;;;;;0.40;0.00;;;;;;;29.61;41.51;100010.53;104009;1280;138440;-71
2022/06/19 08:36:28;;;;;;;0.40;0.00;;;;;;;29.87;41.00;100010.90;104012;1279;95363;-69
2022/06/19 08:38:59;;;;;;;0.40;0.00;;;;;;;30.07;40.20;100004.60;104694;1277;96537;-70
2022/06/19 08:41:38;;;;;;;0.40;0.00;;;;;;;30.14;39.10;100006.32;104105;1279;138159;-70
2022/06/19 08:44:24;;;;;;;0.40;0.00;;;;;;;30.20;38.98;100008.13;104178;1277;99678;-71
2022/06/19 08:46:52;;;;;;;0.40;0.00;;;;;;;30.32;38.83;100009.44;103991;1277;138057;-71
2022/06/19 08:49:29;;;;;;;0.40;0.00;;;;;;;30.44;38.97;100004.89;104098;1279;98021;-71
2022/06/19 08:52:02;;;;;;;0.40;0.00;;;;;;;30.54;38.31;100006.03;104025;1278;138172;-71
2022/06/19 08:54:55;;;;;;;0.40;0.00;;;;;;;30.64;38.47;100000.44;104186;1280;109598;-71
2022/06/19 08:57:25;;;;;;;0.40;0.00;;;;;;;30.79;38.05;99996.03;104143;1280;138302;-71
2022/06/19 08:59:53;;;;;;;0.40;0.00;;;;;;;30.97;38.31;99991.41;104097;1279;108711;-72
2022/06/19 09:02:48;;;;;;;0.40;0.00;;;;;;;31.11;37.03;99997.27;104152;1277;95165;-72
2022/06/19 09:05:59;;;;;;;0.40;0.00;;;;;;;31.23;36.95;99996.28;104007;1279;137877;-72
2022/06/19 09:08:42;;;;;;;0.40;0.00;;;;;;;31.29;37.12;99995.33;104093;1279;109731;-70
2022/06/19 09:11:32;;;;;;;0.40;0.00;;;;;;;31.51;38.04;99991.04;104056;1279;138618;-70
2022/06/19 09:14:31;;;;;;;0.40;0.00;;;;;;;31.71;36.28;99992.44;104126;1280;108581;-70
2022/06/19 09:17:15;;;;;;;0.40;0.00;;;;;;;31.86;35.83;99984.55;103972;1279;138153;-71
2022/06/19 09:19:49;;;;;;;0.40;0.00;;;;;;;32.25;35.69;99982.88;104119;1279;96806;-70
2022/06/19 09:22:39;;;;;;;0.40;0.00;;;;;;;32.82;35.27;99980.71;103980;1279;138542;-70
2022/06/19 09:25:25;;;;;;;0.40;0.00;;;;;;;33.61;33.67;99981.05;104158;1279;98523;-70
2022/06/19 09:28:01;;;;;;;0.40;0.00;;;;;;;34.28;32.78;99979.92;104028;1279;138621;-70
2022/06/19 09:30:36;;;;;;;0.40;0.00;;;;;;;34.85;31.13;99974.33;104095;1280;95230;-70
2022/06/19 09:33:22;;;;;;;0.40;0.00;;;;;;;35.29;31.09;99968.49;104119;1280;95212;-70
2022/06/19 09:36:00;;;;;;;0.40;0.00;;;;;;;35.98;30.12;99963.80;104136;1279;108242;-70
2022/06/19 09:38:59;;;;;;;0.40;0.00;;;;;;;36.46;28.85;99960.08;104099;1279;99601;-70
2022/06/19 09:41:54;;;;;;;0.40;0.00;;;;;;;36.77;28.06;99956.16;103526;1280;137887;-70
2022/06/19 09:44:27;;;;;;;0.40;0.00;;;;;;;37.41;27.84;99953.88;104034;1279;95408;-71
2022/06/19 09:47:03;;;;;;;0.40;0.00;;;;;;;37.80;26.99;99956.71;104132;1278;138218;-71
2022/06/19 09:49:54;;;;;;;0.40;0.00;;;;;;;38.09;26.75;99949.53;104354;1280;109273;-71
2022/06/19 09:52:25;;;;;;;0.40;0.00;;;;;;;38.43;25.78;99949.24;104192;1280;138102;-71
2022/06/19 09:55:03;;;;;;;0.40;0.00;;;;;;;38.76;25.49;99947.27;104283;1279;108872;-70
2022/06/19 09:57:55;;;;;;;0.40;0.00;;;;;;;39.14;25.02;99944.96;104054;1280;138893;-70
2022/06/19 10:00:27;;;;;;;0.40;0.00;;;;;;;39.34;24.77;99944.89;104203;1280;96120;-69
2022/06/19 10:03:21;;;;;;;0.40;0.00;;;;;;;39.62;24.73;99938.46;104178;1279;138004;-70
2022/06/19 10:06:10;;;;;;;0.40;0.00;;;;;;;39.99;24.57;99942.85;104258;1278;99451;-71
2022/06/19 10:08:44;;;;;;;0.40;0.00;;;;;;;40.17;23.86;99938.98;104185;1280;108785;-70
2022/06/19 10:11:43;;;;;;;0.40;0.00;;;;;;;40.33;23.55;99942.11;104085;1279;138220;-71
2022/06/19 10:14:35;;;;;;;0.40;0.00;;;;;;;40.61;23.68;99936.15;104238;1280;95846;-71
2022/06/19 10:17:04;;;;;;;0.40;0.00;;;;;;;40.53;23.04;99931.15;103958;1279;137973;-69
2022/06/19 10:19:44;;;;;;;0.40;0.00;;;;;;;40.62;23.30;99931.20;104318;1280;99440;-69
2022/06/19 10:22:39;;;;;;;0.40;0.00;;;;;;;40.89;23.19;99935.30;104200;1279;137894;-70
2022/06/19 10:25:09;;;;;;;0.40;0.00;;;;;;;40.97;22.84;99922.33;104370;1280;95136;-71
2022/06/19 10:27:59;;;;;;;0.40;0.00;;;;;;;41.11;22.82;99916.30;104204;1279;138796;-71
2022/06/19 10:30:43;;;;;;;0.40;0.00;;;;;;;41.30;22.55;99920.95;104257;1278;110296;-70
2022/06/19 10:33:34;;;;;;;0.40;0.00;;;;;;;41.24;21.84;99918.08;104167;1278;139348;-70
2022/06/19 10:36:20;;;;;;;0.40;0.00;;;;;;;41.06;21.56;99918.35;104091;1280;109649;-70
2022/06/19 10:38:48;;;;;;;0.40;0.00;;;;;;;40.99;22.38;99912.21;104228;1278;95208;-71
2022/06/19 10:42:06;;;;;;;0.40;0.00;;;;;;;41.03;22.08;99907.25;104137;1277;138432;-69
2022/06/19 10:44:49;;;;;;;0.40;0.00;;;;;;;40.92;21.87;99903.12;104284;1277;108958;-69
2022/06/19 10:47:54;;;;;;;0.40;0.00;;;;;;;41.03;21.65;99899.92;104087;1277;139160;-70
2022/06/19 10:50:58;;;;;;;0.40;0.00;;;;;;;40.97;21.58;99894.67;103890;1280;108910;-70
2022/06/19 10:53:33;;;;;;;0.40;0.00;;;;;;;40.90;21.14;99892.77;103980;1280;138394;-69
2022/06/19 10:56:31;;;;;;;0.40;0.00;;;;;;;41.07;21.27;99891.16;104230;1281;95756;-69
2022/06/19 10:58:59;;;;;;;0.40;0.00;;;;;;;41.29;21.21;99888.36;104044;1280;138071;-70
2022/06/19 11:04:29;;;;;;;0.40;0.00;;;;;;;40.80;20.68;99882.54;104251;1277;138586;-70
2022/06/19 11:07:12;;;;;;;0.40;0.00;;;;;;;39.88;21.49;99880.27;104358;1277;95206;-70
2022/06/19 11:09:47;;;;;;;0.40;0.00;;;;;;;39.07;22.08;99877.20;104214;1277;138892;-69
2022/06/19 11:12:33;;;;;;;0.40;0.00;;;;;;;38.45;23.01;99875.89;104296;1277;109962;-69
2022/06/19 11:15:08;;;;;;;0.40;0.00;;;;;;;38.07;23.97;99874.27;104319;1278;99482;-70
2022/06/19 11:17:38;;;;;;;0.40;0.00;;;;;;;37.82;24.40;99876.52;104095;1278;137944;-70
2022/06/19 11:20:27;;;;;;;0.40;0.00;;;;;;;37.61;24.67;99880.50;104264;1277;95943;-69
2022/06/19 11:23:53;;;;;;;0.40;0.00;;;;;;;37.12;24.73;99871.50;104067;1277;138083;-70
2022/06/19 11:26:26;;;;;;;0.40;0.00;;;;;;;36.52;26.03;99865.95;103610;1284;108147;-70
2022/06/19 11:28:54;;;;;;;0.40;0.00;;;;;;;36.20;26.31;99868.83;104026;1280;138680;-68
2022/06/19 11:31:26;;;;;;;0.40;0.00;;;;;;;35.99;26.44;99864.02;103086;1277;108838;-68
2022/06/19 11:34:43;;;;;;;0.40;0.00;;;;;;;35.83;26.21;99859.14;103102;1277;138482;-69
2022/06/19 11:37:28;;;;;;;0.40;0.00;;;;;;;35.57;26.59;99852.75;103326;1277;95238;-71
2022/06/19 11:39:59;;;;;;;0.40;0.00;;;;;;;35.41;26.75;99850.93;104202;1277;139237;-70
2022/06/19 11:42:36;;;;;;;0.40;0.00;;;;;;;35.29;26.77;99847.65;104200;1277;99538;-70
2022/06/19 11:45:13;;;;;;;0.40;0.00;;;;;;;35.20;27.52;99840.98;104145;1280;108985;-70
2022/06/19 11:47:47;;;;;;;0.40;0.00;;;;;;;35.12;27.46;99848.66;104129;1277;138456;-70
2022/06/19 11:50:22;;;;;;;0.40;0.00;;;;;;;34.97;27.50;99843.66;104056;1280;95618;-69
2022/06/19 11:52:55;;;;;;;0.40;0.00;;;;;;;34.88;27.70;99840.27;103940;1280;137970;-70